sensor_id;sensor_type;location;lat;lon;timestamp;temperature;humidity
6696;DHT22;3385;48.928;10.330;2023-08-24T00:02:03;18.70;99.90
6696;DHT22;3385;48.928;10.330;2023-08-24T00:04:29;18.30;99.90
6696;DHT22;3385;48.928;10.330;2023-08-24T00:06:55;18.30;99.90
6696;DHT22;3385;48.928;10.330;2023-08-24T00:09:20;18.40;99.90
6696;DHT22;3385;48.928;10.330;2023-08-24T00:11:46;18.30;99.90
6696;DHT22;3385;48.928;10.330;2023-08-24T00:14:12;17.80;99.90
6696;DHT22;3385;48.928;10.330;2023-08-24T00:16:38;17.80;99.90
6696;DHT22;3385;48.928;10.330;2023-08-24T00:19:04;18.00;99.90
6696;DHT22;3385;48.928;10.330;2023-08-24T00:21:30;18.10;99.90
6696;DHT22;3385;48.928;10.330;2023-08-24T00:23:56;18.10;99.90
6696;DHT22;3385;48.928;10.330;2023-08-24T00:26:21;18.10;99.90
6696;DHT22;3385;48.928;10.330;2023-08-24T00:28:48;17.80;99.90
6696;DHT22;3385;48.928;10.330;2023-08-24T00:31:17;18.00;99.90
6696;DHT22;3385;48.928;10.330;2023-08-24T00:33:43;17.90;99.90
6696;DHT22;3385;48.928;10.330;2023-08-24T00:36:08;18.40;99.90
6696;DHT22;3385;48.928;10.330;2023-08-24T00:38:34;17.90;99.90
6696;DHT22;3385;48.928;10.330;2023-08-24T00:41:00;18.30;99.90
6696;DHT22;3385;48.928;10.330;2023-08-24T00:43:26;17.80;99.90
6696;DHT22;3385;48.928;10.330;2023-08-24T00:45:55;18.40;99.90
6696;DHT22;3385;48.928;10.330;2023-08-24T00:48:22;18.20;99.90
6696;DHT22;3385;48.928;10.330;2023-08-24T00:50:54;18.30;99.90
6696;DHT22;3385;48.928;10.330;2023-08-24T00:53:20;18.20;99.90
6696;DHT22;3385;48.928;10.330;2023-08-24T00:55:46;18.40;99.90
6696;DHT22;3385;48.928;10.330;2023-08-24T00:58:13;18.20;99.90
6696;DHT22;3385;48.928;10.330;2023-08-24T01:00:39;17.90;99.90
6696;DHT22;3385;48.928;10.330;2023-08-24T01:03:06;18.40;99.90
6696;DHT22;3385;48.928;10.330;2023-08-24T01:05:31;18.30;99.90
6696;DHT22;3385;48.928;10.330;2023-08-24T01:07:57;18.30;99.90
6696;DHT22;3385;48.928;10.330;2023-08-24T01:10:30;17.80;99.90
6696;DHT22;3385;48.928;10.330;2023-08-24T01:13:08;17.60;99.90
6696;DHT22;3385;48.928;10.330;2023-08-24T01:18:13;17.60;99.90
6696;DHT22;3385;48.928;10.330;2023-08-24T01:23:21;17.10;99.90
6696;DHT22;3385;48.928;10.330;2023-08-24T01:26:01;17.00;99.90
6696;DHT22;3385;48.928;10.330;2023-08-24T01:28:27;17.20;99.90
6696;DHT22;3385;48.928;10.330;2023-08-24T01:30:53;16.90;99.90
6696;DHT22;3385;48.928;10.330;2023-08-24T01:33:19;16.90;99.90
6696;DHT22;3385;48.928;10.330;2023-08-24T01:35:45;17.30;99.90
6696;DHT22;3385;48.928;10.330;2023-08-24T01:38:10;17.70;99.90
6696;DHT22;3385;48.928;10.330;2023-08-24T01:41:09;17.30;99.90
6696;DHT22;3385;48.928;10.330;2023-08-24T01:43:36;17.40;99.90
6696;DHT22;3385;48.928;10.330;2023-08-24T01:46:07;17.20;99.90
6696;DHT22;3385;48.928;10.330;2023-08-24T01:48:33;16.90;99.90
6696;DHT22;3385;48.928;10.330;2023-08-24T01:51:00;17.20;99.90
6696;DHT22;3385;48.928;10.330;2023-08-24T01:53:29;17.00;99.90
6696;DHT22;3385;48.928;10.330;2023-08-24T01:55:57;16.60;99.90
6696;DHT22;3385;48.928;10.330;2023-08-24T01:58:23;16.80;99.90
6696;DHT22;3385;48.928;10.330;2023-08-24T02:00:49;16.50;99.90
6696;DHT22;3385;48.928;10.330;2023-08-24T02:03:15;16.50;99.90
6696;DHT22;3385;48.928;10.330;2023-08-24T02:05:40;16.30;99.90
6696;DHT22;3385;48.928;10.330;2023-08-24T02:08:06;16.80;99.90
6696;DHT22;3385;48.928;10.330;2023-08-24T02:10:32;16.90;99.90
6696;DHT22;3385;48.928;10.330;2023-08-24T02:12:57;17.10;99.90
6696;DHT22;3385;48.928;10.330;2023-08-24T02:15:23;16.80;99.90
6696;DHT22;3385;48.928;10.330;2023-08-24T02:17:49;16.90;99.90
6696;DHT22;3385;48.928;10.330;2023-08-24T02:20:15;17.20;99.90
6696;DHT22;3385;48.928;10.330;2023-08-24T02:22:40;16.70;99.90
6696;DHT22;3385;48.928;10.330;2023-08-24T02:25:08;17.20;99.90
6696;DHT22;3385;48.928;10.330;2023-08-24T02:27:33;16.90;99.90
6696;DHT22;3385;48.928;10.330;2023-08-24T02:29:59;17.10;99.90
6696;DHT22;3385;48.928;10.330;2023-08-24T02:32:26;17.20;99.90
6696;DHT22;3385;48.928;10.330;2023-08-24T02:34:51;16.60;99.90
6696;DHT22;3385;48.928;10.330;2023-08-24T02:37:17;16.80;99.90
6696;DHT22;3385;48.928;10.330;2023-08-24T02:39:43;16.60;99.90
6696;DHT22;3385;48.928;10.330;2023-08-24T02:42:09;16.90;99.90
6696;DHT22;3385;48.928;10.330;2023-08-24T02:44:35;16.70;99.90
6696;DHT22;3385;48.928;10.330;2023-08-24T02:47:01;16.80;99.90
6696;DHT22;3385;48.928;10.330;2023-08-24T02:51:54;16.90;99.90
6696;DHT22;3385;48.928;10.330;2023-08-24T02:54:20;17.10;99.90
6696;DHT22;3385;48.928;10.330;2023-08-24T02:56:46;17.10;99.90
6696;DHT22;3385;48.928;10.330;2023-08-24T02:59:12;16.70;99.90
6696;DHT22;3385;48.928;10.330;2023-08-24T03:01:37;16.80;99.90
6696;DHT22;3385;48.928;10.330;2023-08-24T03:06:30;17.10;99.90
6696;DHT22;3385;48.928;10.330;2023-08-24T03:11:23;17.30;99.90
6696;DHT22;3385;48.928;10.330;2023-08-24T03:13:48;17.10;99.90
6696;DHT22;3385;48.928;10.330;2023-08-24T03:16:14;16.90;99.90
6696;DHT22;3385;48.928;10.330;2023-08-24T03:18:40;16.80;99.90
6696;DHT22;3385;48.928;10.330;2023-08-24T03:21:06;16.70;99.90
6696;DHT22;3385;48.928;10.330;2023-08-24T03:23:32;16.70;99.90
6696;DHT22;3385;48.928;10.330;2023-08-24T03:25:58;16.90;99.90
6696;DHT22;3385;48.928;10.330;2023-08-24T03:28:23;16.40;99.90
6696;DHT22;3385;48.928;10.330;2023-08-24T03:30:51;16.90;99.90
6696;DHT22;3385;48.928;10.330;2023-08-24T03:33:17;16.80;99.90
6696;DHT22;3385;48.928;10.330;2023-08-24T03:35:44;16.70;99.90
6696;DHT22;3385;48.928;10.330;2023-08-24T03:38:10;16.60;99.90
6696;DHT22;3385;48.928;10.330;2023-08-24T03:40:36;16.20;99.90
6696;DHT22;3385;48.928;10.330;2023-08-24T03:43:03;16.30;99.90
6696;DHT22;3385;48.928;10.330;2023-08-24T03:45:29;16.20;99.90
6696;DHT22;3385;48.928;10.330;2023-08-24T03:47:54;16.20;99.90
6696;DHT22;3385;48.928;10.330;2023-08-24T03:50:20;16.20;99.90
6696;DHT22;3385;48.928;10.330;2023-08-24T03:52:49;16.10;99.90
6696;DHT22;3385;48.928;10.330;2023-08-24T03:55:15;15.80;99.90
6696;DHT22;3385;48.928;10.330;2023-08-24T03:57:41;15.90;99.90
6696;DHT22;3385;48.928;10.330;2023-08-24T04:00:07;16.30;99.90
6696;DHT22;3385;48.928;10.330;2023-08-24T04:07:29;16.20;99.90
6696;DHT22;3385;48.928;10.330;2023-08-24T04:09:56;16.40;99.90
6696;DHT22;3385;48.928;10.330;2023-08-24T04:12:22;16.50;99.90
6696;DHT22;3385;48.928;10.330;2023-08-24T04:14:48;16.30;99.90
6696;DHT22;3385;48.928;10.330;2023-08-24T04:17:14;15.90;99.90
6696;DHT22;3385;48.928;10.330;2023-08-24T04:19:40;16.30;99.90
6696;DHT22;3385;48.928;10.330;2023-08-24T04:22:05;16.40;99.90
6696;DHT22;3385;48.928;10.330;2023-08-24T04:24:31;16.40;99.90
6696;DHT22;3385;48.928;10.330;2023-08-24T04:26:57;16.40;99.90
6696;DHT22;3385;48.928;10.330;2023-08-24T04:29:22;16.30;99.90
6696;DHT22;3385;48.928;10.330;2023-08-24T04:31:48;16.00;99.90
6696;DHT22;3385;48.928;10.330;2023-08-24T04:34:14;15.80;99.90
6696;DHT22;3385;48.928;10.330;2023-08-24T04:36:39;16.40;99.90
6696;DHT22;3385;48.928;10.330;2023-08-24T04:39:05;15.90;99.90
6696;DHT22;3385;48.928;10.330;2023-08-24T04:41:31;15.90;99.90
6696;DHT22;3385;48.928;10.330;2023-08-24T04:43:56;16.40;99.90
6696;DHT22;3385;48.928;10.330;2023-08-24T04:46:22;16.30;99.90
6696;DHT22;3385;48.928;10.330;2023-08-24T04:48:48;16.30;99.90
6696;DHT22;3385;48.928;10.330;2023-08-24T04:51:13;16.40;99.90
6696;DHT22;3385;48.928;10.330;2023-08-24T04:53:39;16.30;99.90
6696;DHT22;3385;48.928;10.330;2023-08-24T04:56:05;16.10;99.90
6696;DHT22;3385;48.928;10.330;2023-08-24T04:58:33;16.60;99.90
6696;DHT22;3385;48.928;10.330;2023-08-24T05:00:58;16.40;99.90
6696;DHT22;3385;48.928;10.330;2023-08-24T05:03:24;16.70;99.90
6696;DHT22;3385;48.928;10.330;2023-08-24T05:05:50;16.30;99.90
6696;DHT22;3385;48.928;10.330;2023-08-24T05:08:15;16.50;99.90
6696;DHT22;3385;48.928;10.330;2023-08-24T05:10:41;17.00;99.90
6696;DHT22;3385;48.928;10.330;2023-08-24T05:13:07;16.80;99.90
6696;DHT22;3385;48.928;10.330;2023-08-24T05:15:33;17.40;99.90
6696;DHT22;3385;48.928;10.330;2023-08-24T05:17:58;17.10;99.90
6696;DHT22;3385;48.928;10.330;2023-08-24T05:20:28;17.50;99.90
6696;DHT22;3385;48.928;10.330;2023-08-24T05:22:54;17.60;99.90
6696;DHT22;3385;48.928;10.330;2023-08-24T05:25:21;17.70;99.90
6696;DHT22;3385;48.928;10.330;2023-08-24T05:27:47;17.90;99.90
6696;DHT22;3385;48.928;10.330;2023-08-24T05:30:13;18.10;99.90
6696;DHT22;3385;48.928;10.330;2023-08-24T05:32:39;18.00;99.90
6696;DHT22;3385;48.928;10.330;2023-08-24T05:35:05;17.80;99.90
6696;DHT22;3385;48.928;10.330;2023-08-24T05:37:31;17.90;99.90
6696;DHT22;3385;48.928;10.330;2023-08-24T05:39:57;18.10;99.90
6696;DHT22;3385;48.928;10.330;2023-08-24T05:42:23;18.10;99.90
6696;DHT22;3385;48.928;10.330;2023-08-24T05:44:49;18.30;99.90
6696;DHT22;3385;48.928;10.330;2023-08-24T05:47:15;18.50;99.90
6696;DHT22;3385;48.928;10.330;2023-08-24T05:49:40;18.10;99.90
6696;DHT22;3385;48.928;10.330;2023-08-24T05:52:06;18.30;99.90
6696;DHT22;3385;48.928;10.330;2023-08-24T05:54:32;18.70;99.90
6696;DHT22;3385;48.928;10.330;2023-08-24T05:56:58;19.00;99.90
6696;DHT22;3385;48.928;10.330;2023-08-24T05:59:26;18.80;99.90
6696;DHT22;3385;48.928;10.330;2023-08-24T06:01:52;18.80;99.90
6696;DHT22;3385;48.928;10.330;2023-08-24T06:04:18;18.50;99.90
6696;DHT22;3385;48.928;10.330;2023-08-24T06:06:44;18.50;99.90
6696;DHT22;3385;48.928;10.330;2023-08-24T06:09:10;18.50;99.90
6696;DHT22;3385;48.928;10.330;2023-08-24T06:11:36;18.70;99.90
6696;DHT22;3385;48.928;10.330;2023-08-24T06:14:01;18.60;99.90
6696;DHT22;3385;48.928;10.330;2023-08-24T06:16:30;18.50;99.90
6696;DHT22;3385;48.928;10.330;2023-08-24T06:18:56;18.70;99.90
6696;DHT22;3385;48.928;10.330;2023-08-24T06:21:21;18.90;99.90
6696;DHT22;3385;48.928;10.330;2023-08-24T06:23:47;19.10;99.90
6696;DHT22;3385;48.928;10.330;2023-08-24T06:26:13;18.80;99.90
6696;DHT22;3385;48.928;10.330;2023-08-24T06:28:40;18.90;99.90
6696;DHT22;3385;48.928;10.330;2023-08-24T06:31:05;18.70;99.90
6696;DHT22;3385;48.928;10.330;2023-08-24T06:33:37;19.10;99.90
6696;DHT22;3385;48.928;10.330;2023-08-24T06:36:04;19.20;99.90
6696;DHT22;3385;48.928;10.330;2023-08-24T06:38:33;19.20;99.90
6696;DHT22;3385;48.928;10.330;2023-08-24T06:41:00;19.30;99.90
6696;DHT22;3385;48.928;10.330;2023-08-24T06:43:26;19.30;99.90
6696;DHT22;3385;48.928;10.330;2023-08-24T06:45:54;19.60;99.90
6696;DHT22;3385;48.928;10.330;2023-08-24T06:48:19;20.30;99.90
6696;DHT22;3385;48.928;10.330;2023-08-24T06:50:45;19.80;99.90
6696;DHT22;3385;48.928;10.330;2023-08-24T06:53:11;20.10;99.90
6696;DHT22;3385;48.928;10.330;2023-08-24T06:55:37;20.40;99.90
6696;DHT22;3385;48.928;10.330;2023-08-24T07:00:32;20.80;99.90
6696;DHT22;3385;48.928;10.330;2023-08-24T07:02:59;21.00;99.90
6696;DHT22;3385;48.928;10.330;2023-08-24T07:05:25;21.50;99.90
6696;DHT22;3385;48.928;10.330;2023-08-24T07:07:51;21.10;99.90
6696;DHT22;3385;48.928;10.330;2023-08-24T07:10:17;21.30;99.90
6696;DHT22;3385;48.928;10.330;2023-08-24T07:12:44;21.40;99.90
6696;DHT22;3385;48.928;10.330;2023-08-24T07:15:11;21.70;99.90
6696;DHT22;3385;48.928;10.330;2023-08-24T07:17:37;21.60;99.90
6696;DHT22;3385;48.928;10.330;2023-08-24T07:20:04;21.50;99.90
6696;DHT22;3385;48.928;10.330;2023-08-24T07:22:34;21.60;99.90
6696;DHT22;3385;48.928;10.330;2023-08-24T07:25:00;21.90;99.90
6696;DHT22;3385;48.928;10.330;2023-08-24T07:27:29;21.90;99.90
6696;DHT22;3385;48.928;10.330;2023-08-24T07:29:54;22.10;99.90
6696;DHT22;3385;48.928;10.330;2023-08-24T07:32:20;22.20;99.90
6696;DHT22;3385;48.928;10.330;2023-08-24T07:34:46;22.60;99.90
6696;DHT22;3385;48.928;10.330;2023-08-24T07:37:12;22.70;99.90
6696;DHT22;3385;48.928;10.330;2023-08-24T07:39:38;22.80;99.90
6696;DHT22;3385;48.928;10.330;2023-08-24T07:42:04;23.20;99.90
6696;DHT22;3385;48.928;10.330;2023-08-24T07:44:30;23.40;99.90
6696;DHT22;3385;48.928;10.330;2023-08-24T07:46:56;23.50;99.90
6696;DHT22;3385;48.928;10.330;2023-08-24T07:49:21;23.40;99.90
6696;DHT22;3385;48.928;10.330;2023-08-24T07:51:47;23.30;99.90
6696;DHT22;3385;48.928;10.330;2023-08-24T07:54:13;23.40;99.90
6696;DHT22;3385;48.928;10.330;2023-08-24T07:56:38;23.40;99.90
6696;DHT22;3385;48.928;10.330;2023-08-24T07:59:04;23.50;99.90
6696;DHT22;3385;48.928;10.330;2023-08-24T08:01:30;23.40;99.90
6696;DHT22;3385;48.928;10.330;2023-08-24T08:03:56;23.90;99.90
6696;DHT22;3385;48.928;10.330;2023-08-24T08:06:22;24.10;99.90
6696;DHT22;3385;48.928;10.330;2023-08-24T08:08:50;23.90;99.90
6696;DHT22;3385;48.928;10.330;2023-08-24T08:11:17;23.60;99.90
6696;DHT22;3385;48.928;10.330;2023-08-24T08:13:43;23.50;99.90
6696;DHT22;3385;48.928;10.330;2023-08-24T08:16:09;23.70;99.90
6696;DHT22;3385;48.928;10.330;2023-08-24T08:18:36;24.00;99.90
6696;DHT22;3385;48.928;10.330;2023-08-24T08:21:08;24.20;99.90
6696;DHT22;3385;48.928;10.330;2023-08-24T08:23:34;24.50;99.90
6696;DHT22;3385;48.928;10.330;2023-08-24T08:26:00;24.30;99.90
6696;DHT22;3385;48.928;10.330;2023-08-24T08:28:26;24.80;99.90
6696;DHT22;3385;48.928;10.330;2023-08-24T08:30:51;25.20;99.90
6696;DHT22;3385;48.928;10.330;2023-08-24T08:33:17;25.00;99.90
6696;DHT22;3385;48.928;10.330;2023-08-24T08:35:45;25.20;99.90
6696;DHT22;3385;48.928;10.330;2023-08-24T08:38:10;25.30;99.90
6696;DHT22;3385;48.928;10.330;2023-08-24T08:40:39;25.20;99.90
6696;DHT22;3385;48.928;10.330;2023-08-24T08:43:06;25.20;99.90
6696;DHT22;3385;48.928;10.330;2023-08-24T08:45:32;25.60;99.90
6696;DHT22;3385;48.928;10.330;2023-08-24T08:48:00;25.80;99.90
6696;DHT22;3385;48.928;10.330;2023-08-24T08:50:26;25.50;99.90
6696;DHT22;3385;48.928;10.330;2023-08-24T08:52:52;25.30;99.90
6696;DHT22;3385;48.928;10.330;2023-08-24T08:55:19;25.70;99.90
6696;DHT22;3385;48.928;10.330;2023-08-24T08:57:49;25.60;99.90
6696;DHT22;3385;48.928;10.330;2023-08-24T09:00:18;25.70;99.90
6696;DHT22;3385;48.928;10.330;2023-08-24T09:02:45;25.90;99.90
6696;DHT22;3385;48.928;10.330;2023-08-24T09:05:12;26.30;99.90
6696;DHT22;3385;48.928;10.330;2023-08-24T09:07:41;26.50;99.90
6696;DHT22;3385;48.928;10.330;2023-08-24T09:10:07;26.40;99.90
6696;DHT22;3385;48.928;10.330;2023-08-24T09:12:33;26.20;99.90
6696;DHT22;3385;48.928;10.330;2023-08-24T09:15:00;26.60;99.90
6696;DHT22;3385;48.928;10.330;2023-08-24T09:17:28;26.50;99.90
6696;DHT22;3385;48.928;10.330;2023-08-24T09:19:58;26.70;99.90
6696;DHT22;3385;48.928;10.330;2023-08-24T09:22:24;26.40;99.90
6696;DHT22;3385;48.928;10.330;2023-08-24T09:24:50;26.00;99.90
6696;DHT22;3385;48.928;10.330;2023-08-24T09:27:20;26.10;99.90
6696;DHT22;3385;48.928;10.330;2023-08-24T09:29:52;26.20;99.90
6696;DHT22;3385;48.928;10.330;2023-08-24T09:32:28;26.30;99.90
6696;DHT22;3385;48.928;10.330;2023-08-24T09:34:55;26.10;99.90
6696;DHT22;3385;48.928;10.330;2023-08-24T09:37:21;26.50;99.90
6696;DHT22;3385;48.928;10.330;2023-08-24T09:39:47;26.30;99.90
6696;DHT22;3385;48.928;10.330;2023-08-24T09:42:13;27.00;99.90
6696;DHT22;3385;48.928;10.330;2023-08-24T09:44:45;27.30;99.90
6696;DHT22;3385;48.928;10.330;2023-08-24T09:47:11;27.00;99.90
6696;DHT22;3385;48.928;10.330;2023-08-24T09:49:37;27.40;99.90
6696;DHT22;3385;48.928;10.330;2023-08-24T09:52:07;27.20;99.90
6696;DHT22;3385;48.928;10.330;2023-08-24T09:54:37;27.70;99.90
6696;DHT22;3385;48.928;10.330;2023-08-24T09:57:05;27.60;99.90
6696;DHT22;3385;48.928;10.330;2023-08-24T09:59:34;27.50;99.90
6696;DHT22;3385;48.928;10.330;2023-08-24T10:02:02;26.80;99.90
6696;DHT22;3385;48.928;10.330;2023-08-24T10:04:30;27.50;99.90
6696;DHT22;3385;48.928;10.330;2023-08-24T10:07:06;27.50;99.90
6696;DHT22;3385;48.928;10.330;2023-08-24T10:12:20;27.70;99.90
6696;DHT22;3385;48.928;10.330;2023-08-24T10:14:56;28.20;99.90
6696;DHT22;3385;48.928;10.330;2023-08-24T10:19:52;28.10;99.90
6696;DHT22;3385;48.928;10.330;2023-08-24T10:22:19;28.40;99.90
6696;DHT22;3385;48.928;10.330;2023-08-24T10:24:49;28.90;99.90
6696;DHT22;3385;48.928;10.330;2023-08-24T10:27:16;28.60;99.90
6696;DHT22;3385;48.928;10.330;2023-08-24T10:29:43;28.30;99.90
6696;DHT22;3385;48.928;10.330;2023-08-24T10:32:09;28.50;99.90
6696;DHT22;3385;48.928;10.330;2023-08-24T10:34:35;28.90;99.90
6696;DHT22;3385;48.928;10.330;2023-08-24T10:37:11;28.70;99.90
6696;DHT22;3385;48.928;10.330;2023-08-24T10:39:43;29.00;99.90
6696;DHT22;3385;48.928;10.330;2023-08-24T10:42:10;29.20;99.90
6696;DHT22;3385;48.928;10.330;2023-08-24T10:44:37;29.30;99.90
6696;DHT22;3385;48.928;10.330;2023-08-24T10:47:15;29.40;99.90
6696;DHT22;3385;48.928;10.330;2023-08-24T10:49:42;29.70;99.90
6696;DHT22;3385;48.928;10.330;2023-08-24T10:54:54;30.30;99.90
6696;DHT22;3385;48.928;10.330;2023-08-24T10:57:20;30.00;99.90
6696;DHT22;3385;48.928;10.330;2023-08-24T11:00:04;30.20;99.90
6696;DHT22;3385;48.928;10.330;2023-08-24T11:02:51;30.40;99.90
6696;DHT22;3385;48.928;10.330;2023-08-24T11:05:28;30.60;99.90
6696;DHT22;3385;48.928;10.330;2023-08-24T11:08:03;31.00;99.90
6696;DHT22;3385;48.928;10.330;2023-08-24T11:15:42;32.00;99.90
6696;DHT22;3385;48.928;10.330;2023-08-24T11:18:23;31.80;99.90
6696;DHT22;3385;48.928;10.330;2023-08-24T11:23:22;31.80;99.90
6696;DHT22;3385;48.928;10.330;2023-08-24T11:25:49;31.90;99.90
6696;DHT22;3385;48.928;10.330;2023-08-24T11:28:20;32.40;99.90
6696;DHT22;3385;48.928;10.330;2023-08-24T11:30:46;32.30;99.90
6696;DHT22;3385;48.928;10.330;2023-08-24T11:33:13;32.70;99.90
6696;DHT22;3385;48.928;10.330;2023-08-24T11:35:44;32.40;99.90
6696;DHT22;3385;48.928;10.330;2023-08-24T11:38:11;32.50;99.90
6696;DHT22;3385;48.928;10.330;2023-08-24T11:40:37;32.70;99.90
6696;DHT22;3385;48.928;10.330;2023-08-24T11:43:03;32.60;99.90
6696;DHT22;3385;48.928;10.330;2023-08-24T11:45:34;33.40;99.90
6696;DHT22;3385;48.928;10.330;2023-08-24T11:48:02;33.30;99.90
6696;DHT22;3385;48.928;10.330;2023-08-24T11:50:30;32.90;99.90
6696;DHT22;3385;48.928;10.330;2023-08-24T11:52:56;33.00;99.90
6696;DHT22;3385;48.928;10.330;2023-08-24T11:55:23;33.40;99.90
6696;DHT22;3385;48.928;10.330;2023-08-24T11:57:49;33.70;99.90
6696;DHT22;3385;48.928;10.330;2023-08-24T12:00:15;34.10;99.90
6696;DHT22;3385;48.928;10.330;2023-08-24T12:02:42;34.50;99.90
6696;DHT22;3385;48.928;10.330;2023-08-24T12:05:20;34.90;99.90
6696;DHT22;3385;48.928;10.330;2023-08-24T12:07:46;34.50;99.90
6696;DHT22;3385;48.928;10.330;2023-08-24T12:10:12;35.20;99.90
6696;DHT22;3385;48.928;10.330;2023-08-24T12:12:38;35.10;99.90
6696;DHT22;3385;48.928;10.330;2023-08-24T12:15:04;34.90;99.90
6696;DHT22;3385;48.928;10.330;2023-08-24T12:17:41;34.60;99.90
6696;DHT22;3385;48.928;10.330;2023-08-24T12:20:07;34.60;99.90
6696;DHT22;3385;48.928;10.330;2023-08-24T12:22:38;34.20;99.90
6696;DHT22;3385;48.928;10.330;2023-08-24T12:25:04;34.60;99.90
6696;DHT22;3385;48.928;10.330;2023-08-24T12:27:31;34.90;99.90
6696;DHT22;3385;48.928;10.330;2023-08-24T12:30:03;36.00;99.90
6696;DHT22;3385;48.928;10.330;2023-08-24T12:32:47;36.00;99.90
6696;DHT22;3385;48.928;10.330;2023-08-24T12:35:15;37.30;99.90
6696;DHT22;3385;48.928;10.330;2023-08-24T12:37:41;36.90;99.90
6696;DHT22;3385;48.928;10.330;2023-08-24T12:40:07;37.20;99.90
6696;DHT22;3385;48.928;10.330;2023-08-24T12:42:33;37.80;99.90
6696;DHT22;3385;48.928;10.330;2023-08-24T12:44:59;38.70;99.90
6696;DHT22;3385;48.928;10.330;2023-08-24T12:47:25;39.80;99.90
6696;DHT22;3385;48.928;10.330;2023-08-24T12:49:51;40.40;99.90
6696;DHT22;3385;48.928;10.330;2023-08-24T12:52:18;39.80;99.90
6696;DHT22;3385;48.928;10.330;2023-08-24T12:54:44;40.00;99.90
6696;DHT22;3385;48.928;10.330;2023-08-24T12:57:09;40.10;99.90
6696;DHT22;3385;48.928;10.330;2023-08-24T12:59:35;40.70;99.90
6696;DHT22;3385;48.928;10.330;2023-08-24T13:02:01;40.00;99.90
6696;DHT22;3385;48.928;10.330;2023-08-24T13:04:26;40.00;99.90
6696;DHT22;3385;48.928;10.330;2023-08-24T13:06:55;40.50;99.90
6696;DHT22;3385;48.928;10.330;2023-08-24T13:09:21;40.70;99.90
6696;DHT22;3385;48.928;10.330;2023-08-24T13:11:49;40.70;99.90
6696;DHT22;3385;48.928;10.330;2023-08-24T13:14:14;38.80;99.90
6696;DHT22;3385;48.928;10.330;2023-08-24T13:16:40;38.70;99.90
6696;DHT22;3385;48.928;10.330;2023-08-24T13:19:06;39.50;99.90
6696;DHT22;3385;48.928;10.330;2023-08-24T13:21:32;40.80;99.90
6696;DHT22;3385;48.928;10.330;2023-08-24T13:23:58;40.50;99.90
6696;DHT22;3385;48.928;10.330;2023-08-24T13:26:24;40.20;99.90
6696;DHT22;3385;48.928;10.330;2023-08-24T13:28:50;40.30;99.90
6696;DHT22;3385;48.928;10.330;2023-08-24T13:31:16;40.30;99.90
6696;DHT22;3385;48.928;10.330;2023-08-24T13:33:42;40.00;99.90
6696;DHT22;3385;48.928;10.330;2023-08-24T13:36:08;40.90;99.90
6696;DHT22;3385;48.928;10.330;2023-08-24T13:38:34;41.10;99.90
6696;DHT22;3385;48.928;10.330;2023-08-24T13:40:59;40.50;99.90
6696;DHT22;3385;48.928;10.330;2023-08-24T13:43:25;39.20;99.90
6696;DHT22;3385;48.928;10.330;2023-08-24T13:45:51;37.30;99.90
6696;DHT22;3385;48.928;10.330;2023-08-24T13:48:17;36.70;99.90
6696;DHT22;3385;48.928;10.330;2023-08-24T13:50:51;36.00;99.90
6696;DHT22;3385;48.928;10.330;2023-08-24T13:53:22;35.50;99.90
6696;DHT22;3385;48.928;10.330;2023-08-24T13:55:47;35.20;99.90
6696;DHT22;3385;48.928;10.330;2023-08-24T13:58:13;35.30;99.90
6696;DHT22;3385;48.928;10.330;2023-08-24T14:00:39;35.60;99.90
6696;DHT22;3385;48.928;10.330;2023-08-24T14:03:05;34.90;99.90
6696;DHT22;3385;48.928;10.330;2023-08-24T14:05:31;35.20;99.90
6696;DHT22;3385;48.928;10.330;2023-08-24T14:07:56;36.20;99.90
6696;DHT22;3385;48.928;10.330;2023-08-24T14:10:22;37.10;99.90
6696;DHT22;3385;48.928;10.330;2023-08-24T14:12:48;37.70;99.90
6696;DHT22;3385;48.928;10.330;2023-08-24T14:15:14;38.60;99.90
6696;DHT22;3385;48.928;10.330;2023-08-24T14:17:39;38.70;99.90
6696;DHT22;3385;48.928;10.330;2023-08-24T14:20:06;38.80;99.90
6696;DHT22;3385;48.928;10.330;2023-08-24T14:22:31;39.30;99.90
6696;DHT22;3385;48.928;10.330;2023-08-24T14:24:58;40.20;99.90
6696;DHT22;3385;48.928;10.330;2023-08-24T14:27:23;40.40;99.90
6696;DHT22;3385;48.928;10.330;2023-08-24T14:29:49;40.20;99.90
6696;DHT22;3385;48.928;10.330;2023-08-24T14:32:15;39.70;99.90
6696;DHT22;3385;48.928;10.330;2023-08-24T14:34:40;40.00;99.90
6696;DHT22;3385;48.928;10.330;2023-08-24T14:37:07;40.00;99.90
6696;DHT22;3385;48.928;10.330;2023-08-24T14:39:32;40.10;99.90
6696;DHT22;3385;48.928;10.330;2023-08-24T14:41:58;40.20;99.90
6696;DHT22;3385;48.928;10.330;2023-08-24T14:44:24;38.90;99.90
6696;DHT22;3385;48.928;10.330;2023-08-24T14:46:50;38.80;99.90
6696;DHT22;3385;48.928;10.330;2023-08-24T14:49:16;38.10;99.90
6696;DHT22;3385;48.928;10.330;2023-08-24T14:51:46;37.70;99.90
6696;DHT22;3385;48.928;10.330;2023-08-24T14:54:12;36.20;99.90
6696;DHT22;3385;48.928;10.330;2023-08-24T14:56:41;36.10;99.90
6696;DHT22;3385;48.928;10.330;2023-08-24T14:59:07;35.70;99.90
6696;DHT22;3385;48.928;10.330;2023-08-24T15:01:33;35.60;99.90
6696;DHT22;3385;48.928;10.330;2023-08-24T15:03:58;35.00;99.90
6696;DHT22;3385;48.928;10.330;2023-08-24T15:06:24;34.10;99.90
6696;DHT22;3385;48.928;10.330;2023-08-24T15:08:50;33.60;99.90
6696;DHT22;3385;48.928;10.330;2023-08-24T15:11:17;33.50;99.90
6696;DHT22;3385;48.928;10.330;2023-08-24T15:13:43;32.90;99.90
6696;DHT22;3385;48.928;10.330;2023-08-24T15:16:09;32.30;99.90
6696;DHT22;3385;48.928;10.330;2023-08-24T15:18:35;32.10;99.90
6696;DHT22;3385;48.928;10.330;2023-08-24T15:21:01;31.70;99.90
6696;DHT22;3385;48.928;10.330;2023-08-24T15:23:29;31.30;99.90
6696;DHT22;3385;48.928;10.330;2023-08-24T15:25:59;31.10;99.90
6696;DHT22;3385;48.928;10.330;2023-08-24T15:28:25;31.00;99.90
6696;DHT22;3385;48.928;10.330;2023-08-24T15:30:51;31.00;99.90
6696;DHT22;3385;48.928;10.330;2023-08-24T15:33:20;31.20;99.90
6696;DHT22;3385;48.928;10.330;2023-08-24T15:35:47;30.90;99.90
6696;DHT22;3385;48.928;10.330;2023-08-24T15:38:12;31.00;99.90
6696;DHT22;3385;48.928;10.330;2023-08-24T15:40:38;30.60;99.90
6696;DHT22;3385;48.928;10.330;2023-08-24T15:43:05;30.50;99.90
6696;DHT22;3385;48.928;10.330;2023-08-24T15:45:32;30.30;99.90
6696;DHT22;3385;48.928;10.330;2023-08-24T15:47:58;30.20;99.90
6696;DHT22;3385;48.928;10.330;2023-08-24T15:50:24;30.20;99.90
6696;DHT22;3385;48.928;10.330;2023-08-24T15:52:50;30.10;99.90
6696;DHT22;3385;48.928;10.330;2023-08-24T15:55:17;30.20;99.90
6696;DHT22;3385;48.928;10.330;2023-08-24T15:57:43;29.90;99.90
6696;DHT22;3385;48.928;10.330;2023-08-24T16:00:09;29.70;99.90
6696;DHT22;3385;48.928;10.330;2023-08-24T16:02:38;29.50;99.90
6696;DHT22;3385;48.928;10.330;2023-08-24T16:05:05;29.20;99.90
6696;DHT22;3385;48.928;10.330;2023-08-24T16:07:31;29.20;99.90
6696;DHT22;3385;48.928;10.330;2023-08-24T16:09:57;29.00;99.90
6696;DHT22;3385;48.928;10.330;2023-08-24T16:12:23;29.10;99.90
6696;DHT22;3385;48.928;10.330;2023-08-24T16:14:48;28.70;99.90
6696;DHT22;3385;48.928;10.330;2023-08-24T16:17:14;28.70;99.90
6696;DHT22;3385;48.928;10.330;2023-08-24T16:19:40;28.60;99.90